createdAt,value
2019-04-25T00:00:55.884Z,1001.91
2019-04-25T00:01:55.903Z,1001.87
2019-04-25T00:02:55.853Z,1001.90
2019-04-25T00:03:55.840Z,1001.85
2019-04-25T00:04:55.851Z,1001.89
2019-04-25T00:05:55.820Z,1001.98
2019-04-25T00:06:55.822Z,1001.95
2019-04-25T00:07:55.810Z,1002.03
2019-04-25T00:08:55.790Z,1001.95
2019-04-25T00:09:55.795Z,1001.99
2019-04-25T00:10:55.777Z,1002.01
2019-04-25T00:11:55.754Z,1001.96
2019-04-25T00:12:55.753Z,1001.94
2019-04-25T00:13:55.733Z,1001.98
2019-04-25T00:14:55.722Z,1001.98
2019-04-25T00:15:55.712Z,1001.99
2019-04-25T00:16:55.703Z,1001.97
2019-04-25T00:17:55.690Z,1001.97
2019-04-25T00:18:55.705Z,1002.04
2019-04-25T00:19:55.680Z,1001.99
2019-04-25T00:20:55.675Z,1001.99
2019-04-25T00:21:55.666Z,1001.94
2019-04-25T00:22:55.646Z,1001.87
2019-04-25T00:23:55.625Z,1001.85
2019-04-25T00:24:55.625Z,1001.90
2019-04-25T00:25:55.621Z,1001.90
2019-04-25T00:26:55.603Z,1001.87
2019-04-25T00:27:55.583Z,1001.87
2019-04-25T00:28:55.581Z,1001.95
2019-04-25T00:29:55.560Z,1001.99
2019-04-25T00:30:55.562Z,1002.04
2019-04-25T00:31:55.539Z,1002.05
2019-04-25T00:32:55.530Z,1002.05
2019-04-25T00:33:55.521Z,1002.02
2019-04-25T00:34:55.507Z,1001.96
2019-04-25T00:35:55.500Z,1001.93
2019-04-25T00:36:55.496Z,1001.85
2019-04-25T00:37:55.483Z,1001.91
2019-04-25T00:38:55.465Z,1001.94
2019-04-25T00:39:55.480Z,1001.90
2019-04-25T00:40:55.442Z,1001.83
2019-04-25T00:41:55.436Z,1001.90
2019-04-25T00:42:55.435Z,1001.92
2019-04-25T00:43:55.412Z,1001.86
2019-04-25T00:44:55.400Z,1001.87
2019-04-25T00:45:55.398Z,1001.86
2019-04-25T00:46:56.799Z,1001.74
2019-04-25T00:47:55.369Z,1001.72
2019-04-25T00:48:55.375Z,1001.76
2019-04-25T00:49:55.357Z,1001.74
2019-04-25T00:50:55.334Z,1001.70
2019-04-25T00:51:55.322Z,1001.69
2019-04-25T00:52:55.312Z,1001.73
2019-04-25T00:53:55.301Z,1001.70
2019-04-25T00:54:55.300Z,1001.72
2019-04-25T00:55:55.287Z,1001.77
2019-04-25T00:56:55.270Z,1001.82
2019-04-25T00:57:55.257Z,1001.88
2019-04-25T00:58:55.249Z,1001.95
2019-04-25T00:59:55.235Z,1002.03
2019-04-25T01:00:55.242Z,1002.15
2019-04-25T01:01:55.214Z,1002.27
2019-04-25T01:02:55.209Z,1002.18
2019-04-25T01:03:55.193Z,1002.28
2019-04-25T01:04:55.184Z,1002.24
2019-04-25T01:05:55.173Z,1002.26
2019-04-25T01:06:55.171Z,1002.26
2019-04-25T01:07:55.150Z,1002.20
2019-04-25T01:08:55.925Z,1002.23
2019-04-25T01:09:55.132Z,1002.24
2019-04-25T01:10:55.120Z,1002.22
2019-04-25T01:11:55.110Z,1002.16
2019-04-25T01:12:55.106Z,1002.24
2019-04-25T01:13:55.084Z,1002.21
2019-04-25T01:14:55.088Z,1002.22
2019-04-25T01:15:55.072Z,1002.19
2019-04-25T01:16:55.052Z,1002.16
2019-04-25T01:17:55.147Z,1002.13
2019-04-25T01:18:55.590Z,1002.14
2019-04-25T01:19:57.741Z,1002.09
2019-04-25T01:20:55.463Z,1002.12
2019-04-25T01:21:56.004Z,1002.14
2019-04-25T01:22:56.993Z,1002.11
2019-04-25T01:23:55.739Z,1002.12
2019-04-25T01:24:55.992Z,1002.09
2019-04-25T01:25:55.798Z,1002.02
2019-04-25T01:26:55.865Z,1002.04
2019-04-25T01:27:54.933Z,1002.03
2019-04-25T01:28:54.988Z,1002.00
2019-04-25T01:29:55.540Z,1001.93
2019-04-25T01:30:55.160Z,1001.96
2019-04-25T01:31:55.279Z,1001.89
2019-04-25T01:32:55.410Z,1001.89
2019-04-25T01:33:55.615Z,1001.88
2019-04-25T01:34:58.584Z,1001.93
2019-04-25T01:35:56.899Z,1001.95
2019-04-25T01:36:55.834Z,1001.94
2019-04-25T01:37:55.292Z,1001.85
2019-04-25T01:38:56.564Z,1001.76
2019-04-25T01:39:55.921Z,1001.74
2019-04-25T01:40:55.610Z,1001.71
2019-04-25T01:41:55.246Z,1001.68
2019-04-25T01:42:54.990Z,1001.71
2019-04-25T01:43:59.204Z,1001.72
2019-04-25T01:44:56.879Z,1001.73
2019-04-25T01:45:54.923Z,1001.71
2019-04-25T01:46:55.574Z,1001.70
2019-04-25T01:47:55.189Z,1001.68
2019-04-25T01:48:55.427Z,1001.67
2019-04-25T01:49:55.548Z,1001.69
2019-04-25T01:50:55.482Z,1001.69
2019-04-25T01:51:57.037Z,1001.69
2019-04-25T01:52:55.626Z,1001.67
2019-04-25T01:53:55.689Z,1001.69
2019-04-25T01:54:55.792Z,1001.71
2019-04-25T01:56:01.626Z,1001.70
2019-04-25T01:56:56.211Z,1001.69
2019-04-25T01:57:55.186Z,1001.72
2019-04-25T01:58:55.034Z,1001.73
2019-04-25T01:59:55.407Z,1001.71
2019-04-25T02:00:56.079Z,1001.75
2019-04-25T02:01:55.423Z,1001.73
2019-04-25T02:02:54.923Z,1001.81
2019-04-25T02:03:55.456Z,1001.83
2019-04-25T02:04:56.852Z,1001.83
2019-04-25T02:05:55.225Z,1001.81
2019-04-25T02:06:54.929Z,1001.84
2019-04-25T02:07:55.020Z,1001.83
2019-04-25T02:08:55.273Z,1001.87
2019-04-25T02:09:55.190Z,1001.94
2019-04-25T02:10:56.773Z,1001.92
2019-04-25T02:11:55.535Z,1001.98
2019-04-25T02:12:55.293Z,1002.00
2019-04-25T02:13:54.985Z,1002.00
2019-04-25T02:14:55.690Z,1002.04
2019-04-25T02:15:55.169Z,1002.11
2019-04-25T02:16:55.949Z,1002.12
2019-04-25T02:17:57.869Z,1002.13
2019-04-25T02:18:55.546Z,1002.19
2019-04-25T02:19:55.510Z,1002.23
2019-04-25T02:20:57.537Z,1002.28
2019-04-25T02:21:55.321Z,1002.26
2019-04-25T02:22:55.263Z,1002.32
2019-04-25T02:23:55.492Z,1002.33
2019-04-25T02:24:55.660Z,1002.31
2019-04-25T02:26:05.927Z,1002.33
2019-04-25T02:26:56.319Z,1002.30
2019-04-25T02:27:55.718Z,1002.39
2019-04-25T02:28:55.150Z,1002.44
2019-04-25T02:29:55.241Z,1002.43
2019-04-25T02:30:58.352Z,1002.53
2019-04-25T02:31:59.120Z,1002.57
2019-04-25T02:32:58.176Z,1002.56
2019-04-25T02:33:57.881Z,1002.57
2019-04-25T02:34:59.099Z,1002.60
2019-04-25T02:35:58.937Z,1002.64
2019-04-25T02:36:58.882Z,1002.57
2019-04-25T02:37:57.989Z,1002.55
2019-04-25T02:38:59.551Z,1002.56
2019-04-25T02:39:57.231Z,1002.52
2019-04-25T02:40:56.268Z,1002.57
2019-04-25T02:41:56.127Z,1002.51
2019-04-25T02:42:55.860Z,1002.54
2019-04-25T02:43:56.320Z,1002.49
2019-04-25T02:44:57.865Z,1002.48
2019-04-25T02:45:55.500Z,1002.45
2019-04-25T02:46:55.879Z,1002.43
2019-04-25T02:47:56.232Z,1002.48
2019-04-25T02:48:56.189Z,1002.45
2019-04-25T02:49:55.818Z,1002.49
2019-04-25T02:50:56.453Z,1002.43
2019-04-25T02:51:56.205Z,1002.49
2019-04-25T02:52:55.700Z,1002.45
2019-04-25T02:53:55.925Z,1002.43
2019-04-25T02:54:55.617Z,1002.45
2019-04-25T02:55:53.982Z,1002.37
2019-04-25T02:56:54.737Z,1002.33
2019-04-25T02:57:54.224Z,1002.36
2019-04-25T02:58:54.387Z,1002.35
2019-04-25T02:59:54.717Z,1002.40
2019-04-25T03:01:03.413Z,1002.41
2019-04-25T03:01:57.015Z,1002.45
2019-04-25T03:02:54.761Z,1002.45
2019-04-25T03:03:54.671Z,1002.43
2019-04-25T03:04:54.614Z,1002.39
2019-04-25T03:05:54.870Z,1002.42
2019-04-25T03:06:55.505Z,1002.28
2019-04-25T03:07:54.559Z,1002.39
2019-04-25T03:08:54.358Z,1002.34
2019-04-25T03:09:54.771Z,1002.36
2019-04-25T03:10:54.429Z,1002.42
2019-04-25T03:11:54.835Z,1002.41
2019-04-25T03:12:54.421Z,1002.42
2019-04-25T03:13:54.596Z,1002.40
2019-04-25T03:14:55.032Z,1002.37
2019-04-25T03:15:55.710Z,1002.36
2019-04-25T03:16:54.321Z,1002.37
2019-04-25T03:17:54.602Z,1002.40
2019-04-25T03:18:54.449Z,1002.43
2019-04-25T03:19:54.367Z,1002.41
2019-04-25T03:20:54.855Z,1002.44
2019-04-25T03:21:55.038Z,1002.47
2019-04-25T03:22:54.719Z,1002.46
2019-04-25T03:23:54.981Z,1002.48
2019-04-25T03:24:54.890Z,1002.47
2019-04-25T03:25:53.647Z,1002.47
2019-04-25T03:26:53.636Z,1002.52
2019-04-25T03:27:54.128Z,1002.50
2019-04-25T03:28:53.825Z,1002.56
2019-04-25T03:29:54.203Z,1002.55
2019-04-25T03:30:54.886Z,1002.58
2019-04-25T03:31:56.058Z,1002.57
2019-04-25T03:32:56.184Z,1002.60
2019-04-25T03:33:55.803Z,1002.55
2019-04-25T03:34:54.881Z,1002.58
2019-04-25T03:35:53.539Z,1002.60
2019-04-25T03:36:53.768Z,1002.55
2019-04-25T03:37:54.493Z,1002.61
2019-04-25T03:38:54.203Z,1002.54
2019-04-25T03:39:53.610Z,1002.53
2019-04-25T03:40:53.906Z,1002.54
2019-04-25T03:41:53.977Z,1002.52
2019-04-25T03:42:53.825Z,1002.51
2019-04-25T03:43:54.210Z,1002.47
2019-04-25T03:44:53.869Z,1002.49
2019-04-25T03:45:53.574Z,1002.47
2019-04-25T03:46:53.522Z,1002.52
2019-04-25T03:47:53.408Z,1002.53
2019-04-25T03:48:53.962Z,1002.51
2019-04-25T03:49:55.389Z,1002.54
2019-04-25T03:50:54.065Z,1002.56
2019-04-25T03:51:53.812Z,1002.51
2019-04-25T03:52:54.057Z,1002.53
2019-04-25T03:53:53.642Z,1002.51
2019-04-25T03:54:53.527Z,1002.52
2019-04-25T03:55:54.053Z,1002.51
2019-04-25T03:56:55.885Z,1002.58
2019-04-25T03:57:53.937Z,1002.52
2019-04-25T03:58:54.008Z,1002.59
2019-04-25T03:59:53.700Z,1002.59
2019-04-25T04:00:54.510Z,1002.61
2019-04-25T04:01:53.773Z,1002.60
2019-04-25T04:02:53.742Z,1002.63
2019-04-25T04:03:53.793Z,1002.61
2019-04-25T04:04:53.778Z,1002.70
2019-04-25T04:05:54.018Z,1002.66
2019-04-25T04:06:53.739Z,1002.71
2019-04-25T04:07:53.583Z,1002.70
2019-04-25T04:08:53.873Z,1002.67
2019-04-25T04:09:54.888Z,1002.65
2019-04-25T04:10:54.349Z,1002.68
2019-04-25T04:11:53.511Z,1002.66
2019-04-25T04:12:54.263Z,1002.66
2019-04-25T04:13:53.796Z,1002.60
2019-04-25T04:14:53.761Z,1002.66
2019-04-25T04:15:53.303Z,1002.71
2019-04-25T04:16:53.902Z,1002.69
2019-04-25T04:17:53.634Z,1002.68
2019-04-25T04:18:54.086Z,1002.68
2019-04-25T04:19:53.708Z,1002.73
2019-04-25T04:20:53.492Z,1002.72
2019-04-25T04:21:53.257Z,1002.70
2019-04-25T04:22:53.353Z,1002.73
2019-04-25T04:23:54.462Z,1002.74
2019-04-25T04:24:53.805Z,1002.72
2019-04-25T04:25:54.531Z,1002.69
2019-04-25T04:27:03.080Z,1002.72
2019-04-25T04:27:53.981Z,1002.78
2019-04-25T04:28:53.386Z,1002.76
2019-04-25T04:29:54.235Z,1002.77
2019-04-25T04:30:54.115Z,1002.69
2019-04-25T04:31:54.400Z,1002.72
2019-04-25T04:32:53.662Z,1002.72
2019-04-25T04:33:53.179Z,1002.68
2019-04-25T04:34:53.714Z,1002.68
2019-04-25T04:35:54.284Z,1002.65
2019-04-25T04:36:53.706Z,1002.70
2019-04-25T04:37:54.204Z,1002.66
2019-04-25T04:38:54.328Z,1002.68
2019-04-25T04:39:53.598Z,1002.73
2019-04-25T04:40:52.833Z,1002.67
2019-04-25T04:41:53.544Z,1002.73
2019-04-25T04:42:53.367Z,1002.69
2019-04-25T04:43:54.134Z,1002.71
2019-04-25T04:44:53.484Z,1002.77
2019-04-25T04:45:54.104Z,1002.77
2019-04-25T04:46:53.846Z,1002.78
2019-04-25T04:47:53.350Z,1002.80
2019-04-25T04:48:54.049Z,1002.78
2019-04-25T04:49:53.979Z,1002.79
2019-04-25T04:50:53.488Z,1002.81
2019-04-25T04:51:54.166Z,1002.84
2019-04-25T04:52:54.020Z,1002.84
2019-04-25T04:53:53.713Z,1002.85
2019-04-25T04:55:03.700Z,1002.79
2019-04-25T04:55:54.365Z,1002.81
2019-04-25T04:56:53.664Z,1002.82
2019-04-25T04:57:54.172Z,1002.83
2019-04-25T04:58:53.963Z,1002.80
2019-04-25T04:59:53.610Z,1002.87
2019-04-25T05:00:53.717Z,1002.85
2019-04-25T05:01:53.278Z,1002.87
2019-04-25T05:02:53.384Z,1002.82
2019-04-25T05:03:54.030Z,1002.80
2019-04-25T05:04:53.623Z,1002.78
2019-04-25T05:05:53.564Z,1002.79
2019-04-25T05:06:53.709Z,1002.78
2019-04-25T05:07:53.904Z,1002.78
2019-04-25T05:08:53.195Z,1002.81
2019-04-25T05:09:53.492Z,1002.81
2019-04-25T05:10:54.073Z,1002.85
2019-04-25T05:11:53.983Z,1002.83
2019-04-25T05:12:53.275Z,1002.87
2019-04-25T05:13:53.753Z,1002.84
2019-04-25T05:14:53.692Z,1002.87
2019-04-25T05:15:53.253Z,1002.89
2019-04-25T05:16:53.281Z,1002.92
2019-04-25T05:17:53.953Z,1002.92
2019-04-25T05:18:55.092Z,1002.95
2019-04-25T05:19:53.266Z,1002.92
2019-04-25T05:20:54.156Z,1002.92
2019-04-25T05:21:53.711Z,1002.98
2019-04-25T05:22:54.576Z,1002.88
2019-04-25T05:23:54.209Z,1002.94
2019-04-25T05:24:53.547Z,1002.91
2019-04-25T05:25:52.338Z,1002.93
2019-04-25T05:26:53.901Z,1002.93
2019-04-25T05:28:00.752Z,1002.97
2019-04-25T05:28:54.819Z,1002.98
2019-04-25T05:29:53.881Z,1002.96
2019-04-25T05:30:53.523Z,1002.96
2019-04-25T05:31:53.775Z,1002.96
2019-04-25T05:32:54.240Z,1002.98
2019-04-25T05:33:53.640Z,1003.02
2019-04-25T05:34:53.254Z,1003.02
2019-04-25T05:35:53.783Z,1003.04
2019-04-25T05:36:53.780Z,1003.03
2019-04-25T05:37:53.335Z,1003.02
2019-04-25T05:38:53.816Z,1002.99
2019-04-25T05:39:53.546Z,1003.08
2019-04-25T05:40:53.814Z,1002.99
2019-04-25T05:41:52.168Z,1002.97
2019-04-25T05:42:52.157Z,1002.90
2019-04-25T05:43:53.538Z,1002.94
2019-04-25T05:44:52.135Z,1002.97
2019-04-25T05:45:52.138Z,1002.96
2019-04-25T05:46:52.112Z,1002.98
2019-04-25T05:47:52.102Z,1003.02
2019-04-25T05:48:53.681Z,1003.00
2019-04-25T05:49:52.080Z,1003.06
2019-04-25T05:50:53.681Z,1003.09
2019-04-25T05:51:53.466Z,1003.17
2019-04-25T05:52:52.047Z,1003.19
2019-04-25T05:53:52.036Z,1003.20
2019-04-25T05:54:52.026Z,1003.25
2019-04-25T05:55:52.015Z,1003.23
2019-04-25T05:56:53.642Z,1003.25
2019-04-25T05:57:53.518Z,1003.24
2019-04-25T05:58:53.213Z,1003.29
2019-04-25T05:59:53.642Z,1003.31
2019-04-25T06:00:51.960Z,1003.34
2019-04-25T06:01:53.689Z,1003.29
2019-04-25T06:02:53.361Z,1003.30
2019-04-25T06:03:53.562Z,1003.45
2019-04-25T06:04:53.495Z,1003.44
2019-04-25T06:05:53.256Z,1003.41
2019-04-25T06:06:53.047Z,1003.45
2019-04-25T06:07:51.902Z,1003.46
2019-04-25T06:08:51.875Z,1003.50
2019-04-25T06:09:51.874Z,1003.54
2019-04-25T06:10:51.857Z,1003.57
2019-04-25T06:11:53.308Z,1003.60
2019-04-25T06:12:53.548Z,1003.59
2019-04-25T06:13:53.185Z,1003.53
2019-04-25T06:14:52.961Z,1003.55
2019-04-25T06:15:53.302Z,1003.55
2019-04-25T06:16:51.786Z,1003.62
2019-04-25T06:17:53.362Z,1003.55
2019-04-25T06:18:51.767Z,1003.67
2019-04-25T06:19:53.303Z,1003.61
2019-04-25T06:20:51.744Z,1003.68
2019-04-25T06:21:53.430Z,1003.63
2019-04-25T06:22:53.357Z,1003.66
2019-04-25T06:23:51.711Z,1003.70
2019-04-25T06:24:51.699Z,1003.74
2019-04-25T06:25:51.690Z,1003.92
2019-04-25T06:26:51.678Z,1003.93
2019-04-25T06:27:57.215Z,1004.01
2019-04-25T06:28:59.039Z,1003.97
2019-04-25T06:29:59.017Z,1004.00
2019-04-25T06:30:54.006Z,1004.01
2019-04-25T06:32:03.371Z,1004.05
2019-04-25T06:32:53.299Z,1004.04
2019-04-25T06:33:53.769Z,1004.03
2019-04-25T06:34:51.602Z,1004.00
2019-04-25T06:35:51.579Z,1003.88
2019-04-25T06:36:51.567Z,1003.79
2019-04-25T06:37:51.557Z,1003.79
2019-04-25T06:38:51.562Z,1003.83
2019-04-25T06:39:51.538Z,1003.86
2019-04-25T06:40:51.525Z,1003.89
2019-04-25T06:41:51.514Z,1003.93
2019-04-25T06:42:51.502Z,1003.88
2019-04-25T06:43:51.493Z,1003.86
2019-04-25T06:44:51.491Z,1003.74
2019-04-25T06:45:51.473Z,1003.76
2019-04-25T06:46:51.460Z,1003.90
2019-04-25T06:47:51.447Z,1003.85
2019-04-25T06:48:51.437Z,1003.93
2019-04-25T06:49:53.163Z,1003.92
2019-04-25T06:50:51.426Z,1004.03
2019-04-25T06:51:51.407Z,1004.16
2019-04-25T06:52:51.393Z,1004.18
2019-04-25T06:53:51.384Z,1003.98
2019-04-25T06:54:51.372Z,1004.14
2019-04-25T06:55:51.360Z,1003.99
2019-04-25T06:56:51.360Z,1004.17
2019-04-25T06:57:51.339Z,1004.21
2019-04-25T06:58:51.327Z,1004.26
2019-04-25T06:59:51.317Z,1004.40
2019-04-25T07:00:58.920Z,1004.49
2019-04-25T07:01:54.106Z,1004.55
2019-04-25T07:02:51.284Z,1004.53
2019-04-25T07:03:51.274Z,1004.46
2019-04-25T07:04:51.611Z,1004.25
2019-04-25T07:05:51.253Z,1004.31
2019-04-25T07:06:51.242Z,1004.28
2019-04-25T07:07:51.250Z,1004.32
2019-04-25T07:08:51.223Z,1004.49
2019-04-25T07:09:51.232Z,1004.63
2019-04-25T07:10:51.203Z,1004.70
2019-04-25T07:11:51.189Z,1004.50
2019-04-25T07:12:51.179Z,1004.42
2019-04-25T07:13:51.177Z,1004.36
2019-04-25T07:14:51.159Z,1004.30
2019-04-25T07:15:51.155Z,1004.34
2019-04-25T07:16:51.135Z,1004.22
2019-04-25T07:17:51.123Z,1004.26
2019-04-25T07:18:51.115Z,1004.20
2019-04-25T07:19:51.113Z,1004.30
2019-04-25T07:20:51.097Z,1004.30
2019-04-25T07:21:51.080Z,1004.34
2019-04-25T07:22:51.072Z,1004.29
2019-04-25T07:23:51.058Z,1004.35
2019-04-25T07:24:51.053Z,1004.37
2019-04-25T07:25:51.047Z,1004.35
2019-04-25T07:26:51.025Z,1004.32
2019-04-25T07:27:51.043Z,1004.30
2019-04-25T07:28:51.004Z,1004.29
2019-04-25T07:29:50.998Z,1004.28
2019-04-25T07:30:52.676Z,1004.16
2019-04-25T07:31:50.982Z,1004.12
2019-04-25T07:32:50.961Z,1003.99
2019-04-25T07:33:50.952Z,1004.08
2019-04-25T07:34:50.939Z,1004.10
2019-04-25T07:35:50.929Z,1004.04
2019-04-25T07:36:50.918Z,1004.09
2019-04-25T07:37:50.925Z,1004.04
2019-04-25T07:39:04.960Z,1004.02
2019-04-25T07:39:51.884Z,1004.01
2019-04-25T07:40:50.874Z,1004.09
2019-04-25T07:41:50.864Z,1003.99
2019-04-25T07:42:50.851Z,1003.93
2019-04-25T07:43:50.854Z,1003.85
2019-04-25T07:44:53.422Z,1003.90
2019-04-25T07:45:50.820Z,1003.86
2019-04-25T07:46:50.811Z,1003.85
2019-04-25T07:47:50.890Z,1003.83
2019-04-25T07:48:50.809Z,1003.78
2019-04-25T07:49:50.792Z,1003.79
2019-04-25T07:50:50.768Z,1003.81
2019-04-25T07:51:50.754Z,1003.75
2019-04-25T07:52:50.743Z,1003.73
2019-04-25T07:53:50.733Z,1003.84
2019-04-25T07:54:50.722Z,1003.96
2019-04-25T07:55:50.729Z,1003.91
2019-04-25T07:56:50.702Z,1003.96
2019-04-25T07:57:50.688Z,1003.99
2019-04-25T07:58:52.729Z,1004.03
2019-04-25T07:59:52.145Z,1004.16
2019-04-25T08:00:50.657Z,1003.99
2019-04-25T08:01:50.654Z,1004.02
2019-04-25T08:02:50.633Z,1004.22
2019-04-25T08:03:50.628Z,1004.01
2019-04-25T08:04:50.616Z,1004.02
2019-04-25T08:05:50.603Z,1004.05
2019-04-25T08:06:50.590Z,1004.03
2019-04-25T08:07:50.590Z,1004.04
2019-04-25T08:08:50.570Z,1004.12
2019-04-25T08:09:50.562Z,1004.21
2019-04-25T08:10:50.549Z,1004.10
2019-04-25T08:11:50.536Z,1004.10
2019-04-25T08:12:50.525Z,1004.08
2019-04-25T08:13:50.525Z,1004.26
2019-04-25T08:14:50.508Z,1004.25
2019-04-25T08:15:50.493Z,1004.44
2019-04-25T08:16:50.484Z,1004.49
2019-04-25T08:17:50.472Z,1004.55
2019-04-25T08:18:50.462Z,1004.55
2019-04-25T08:19:50.462Z,1004.55
2019-04-25T08:20:50.439Z,1004.52
2019-04-25T08:21:50.428Z,1004.37
2019-04-25T08:22:57.101Z,1004.31
2019-04-25T08:23:51.405Z,1004.23
2019-04-25T08:24:50.396Z,1004.42
2019-04-25T08:25:50.399Z,1004.46
2019-04-25T08:26:50.375Z,1004.40
2019-04-25T08:27:50.363Z,1004.35
2019-04-25T08:28:55.763Z,1004.30
2019-04-25T08:29:51.341Z,1004.38
2019-04-25T08:30:50.334Z,1004.14
2019-04-25T08:31:50.332Z,1004.32
2019-04-25T08:32:50.309Z,1004.35
2019-04-25T08:33:50.298Z,1004.23
2019-04-25T08:34:50.289Z,1004.27
2019-04-25T08:36:04.442Z,1004.25
2019-04-25T08:36:51.276Z,1004.27
2019-04-25T08:37:50.256Z,1004.28
2019-04-25T08:38:50.254Z,1004.21
2019-04-25T08:39:50.236Z,1004.23
2019-04-25T08:40:50.224Z,1004.27
2019-04-25T08:41:50.212Z,1004.35
2019-04-25T08:42:50.219Z,1004.31
2019-04-25T08:43:50.191Z,1004.35
2019-04-25T08:44:50.183Z,1004.34
2019-04-25T08:45:50.168Z,1004.31
2019-04-25T08:46:50.158Z,1004.41
2019-04-25T08:47:50.147Z,1004.31
2019-04-25T08:48:50.153Z,1004.26
2019-04-25T08:49:50.126Z,1004.26
2019-04-25T08:50:50.116Z,1004.24
2019-04-25T08:51:50.105Z,1004.26
2019-04-25T08:52:50.098Z,1004.24
2019-04-25T08:53:50.085Z,1004.23
2019-04-25T08:54:50.083Z,1004.22
2019-04-25T08:55:50.061Z,1004.20
2019-04-25T08:56:50.050Z,1004.19
2019-04-25T08:57:50.040Z,1004.20
2019-04-25T08:59:03.202Z,1004.18
2019-04-25T08:59:52.882Z,1004.19
2019-04-25T09:00:59.354Z,1004.30
2019-04-25T09:01:51.003Z,1004.30
2019-04-25T09:02:49.988Z,1004.34
2019-04-25T09:03:49.975Z,1004.25
2019-04-25T09:04:49.964Z,1004.49
2019-04-25T09:05:49.989Z,1004.45
2019-04-25T09:06:49.944Z,1004.39
2019-04-25T09:07:49.932Z,1004.43
2019-04-25T09:08:49.921Z,1004.42
2019-04-25T09:09:49.912Z,1004.42
2019-04-25T09:10:49.899Z,1004.39
2019-04-25T09:11:49.898Z,1004.41
2019-04-25T09:12:49.877Z,1004.40
2019-04-25T09:13:49.872Z,1004.41
2019-04-25T09:14:49.858Z,1004.33
2019-04-25T09:15:49.846Z,1004.30
2019-04-25T09:16:49.839Z,1004.36
2019-04-25T09:17:49.836Z,1004.45
2019-04-25T09:18:49.814Z,1004.49
2019-04-25T09:19:49.803Z,1004.48
2019-04-25T09:20:49.793Z,1004.45
2019-04-25T09:21:49.781Z,1004.59
2019-04-25T09:22:49.770Z,1004.52
2019-04-25T09:23:49.773Z,1004.54
2019-04-25T09:24:49.754Z,1004.52
2019-04-25T09:25:49.737Z,1004.44
2019-04-25T09:26:49.726Z,1004.48
2019-04-25T09:27:49.715Z,1004.49
2019-04-25T09:28:49.704Z,1004.54
2019-04-25T09:29:49.705Z,1004.58
2019-04-25T09:30:49.683Z,1004.61
2019-04-25T09:31:49.677Z,1004.59
2019-04-25T09:32:49.662Z,1004.56
2019-04-25T09:33:49.651Z,1004.43
2019-04-25T09:34:50.130Z,1004.53
2019-04-25T09:35:49.640Z,1004.42
2019-04-25T09:36:49.618Z,1004.47
2019-04-25T09:37:49.607Z,1004.48
2019-04-25T09:38:49.597Z,1004.47
2019-04-25T09:39:49.590Z,1004.42
2019-04-25T09:40:49.576Z,1004.43
2019-04-25T09:41:49.581Z,1004.41
2019-04-25T09:42:49.556Z,1004.32
2019-04-25T09:43:49.543Z,1004.31
2019-04-25T09:44:49.538Z,1004.39
2019-04-25T09:45:49.521Z,1004.32
2019-04-25T09:46:49.511Z,1004.19
2019-04-25T09:47:49.512Z,1004.31
2019-04-25T09:48:49.489Z,1004.21
2019-04-25T09:49:49.478Z,1004.28
2019-04-25T09:50:49.467Z,1004.33
2019-04-25T09:51:49.460Z,1004.22
2019-04-25T09:52:49.449Z,1004.35
2019-04-25T09:53:51.270Z,1004.33
2019-04-25T09:54:49.424Z,1004.37
2019-04-25T09:55:49.414Z,1004.40
2019-04-25T09:56:49.403Z,1004.37
2019-04-25T09:57:49.396Z,1004.35
2019-04-25T09:58:49.511Z,1004.38
2019-04-25T09:59:49.381Z,1004.31
2019-04-25T10:00:49.360Z,1004.28
2019-04-25T10:01:49.350Z,1004.30
2019-04-25T10:02:49.340Z,1004.31
2019-04-25T10:03:49.329Z,1004.27
2019-04-25T10:04:49.319Z,1004.36
2019-04-25T10:05:49.319Z,1004.44
2019-04-25T10:06:49.297Z,1004.43
2019-04-25T10:07:49.288Z,1004.47
2019-04-25T10:08:49.275Z,1004.54
2019-04-25T10:09:49.271Z,1004.47
2019-04-25T10:10:49.254Z,1004.49
2019-04-25T10:11:49.257Z,1004.47
2019-04-25T10:12:49.979Z,1004.40
2019-04-25T10:13:49.222Z,1004.43
2019-04-25T10:14:49.211Z,1004.51
2019-04-25T10:15:49.199Z,1004.51
2019-04-25T10:16:49.190Z,1004.38
2019-04-25T10:17:49.187Z,1004.47
2019-04-25T10:18:49.166Z,1004.47
2019-04-25T10:19:49.154Z,1004.39
2019-04-25T10:20:49.474Z,1004.52
2019-04-25T10:21:49.696Z,1004.46
2019-04-25T10:22:49.122Z,1004.55
2019-04-25T10:23:51.213Z,1004.54
2019-04-25T10:24:59.932Z,1004.41
2019-04-25T10:25:50.090Z,1004.49
2019-04-25T10:26:49.079Z,1004.51
2019-04-25T10:27:49.409Z,1004.50
2019-04-25T10:28:49.609Z,1004.45
2019-04-25T10:29:53.610Z,1004.61
2019-04-25T10:30:50.035Z,1004.55
2019-04-25T10:31:49.220Z,1004.66
2019-04-25T10:32:49.014Z,1004.67
2019-04-25T10:33:49.004Z,1004.63
2019-04-25T10:34:49.028Z,1004.85
2019-04-25T10:35:53.080Z,1004.65
2019-04-25T10:36:49.969Z,1004.68
2019-04-25T10:37:48.959Z,1004.82
2019-04-25T10:39:01.915Z,1004.78
2019-04-25T10:39:49.937Z,1004.72
2019-04-25T10:40:48.927Z,1004.47
2019-04-25T10:41:49.589Z,1004.51
2019-04-25T10:42:50.579Z,1004.55
2019-04-25T10:43:48.898Z,1004.57
2019-04-25T10:44:48.885Z,1004.54
2019-04-25T10:45:48.873Z,1004.50
2019-04-25T10:46:48.868Z,1004.56
2019-04-25T10:47:49.440Z,1004.58
2019-04-25T10:48:48.840Z,1004.57
2019-04-25T10:49:49.500Z,1004.60
2019-04-25T10:50:48.818Z,1004.62
2019-04-25T10:51:48.807Z,1004.51
2019-04-25T10:52:48.797Z,1004.53
2019-04-25T10:53:48.860Z,1004.53
2019-04-25T10:54:48.775Z,1004.68
2019-04-25T10:55:49.686Z,1004.58
2019-04-25T10:56:48.752Z,1004.64
2019-04-25T10:57:48.741Z,1004.53
2019-04-25T10:58:48.731Z,1004.52
2019-04-25T11:00:00.778Z,1004.46
2019-04-25T11:00:49.709Z,1004.53
2019-04-25T11:01:48.960Z,1004.41
2019-04-25T11:02:49.686Z,1004.59
2019-04-25T11:03:48.676Z,1004.55
2019-04-25T11:04:49.785Z,1004.25
2019-04-25T11:05:49.797Z,1004.38
2019-04-25T11:06:49.326Z,1004.36
2019-04-25T11:07:48.688Z,1004.32
2019-04-25T11:08:49.148Z,1004.35
2019-04-25T11:09:49.179Z,1004.28
2019-04-25T11:10:49.928Z,1004.26
2019-04-25T11:11:48.599Z,1004.17
2019-04-25T11:12:49.295Z,1004.13
2019-04-25T11:13:48.658Z,1004.00
2019-04-25T11:14:48.796Z,1004.08
2019-04-25T11:15:48.559Z,1004.10
2019-04-25T11:16:48.534Z,1004.15
2019-04-25T11:17:48.540Z,1004.13
2019-04-25T11:18:49.566Z,1004.09
2019-04-25T11:19:49.217Z,1004.13
2019-04-25T11:20:48.492Z,1004.06
2019-04-25T11:21:48.481Z,1004.06
2019-04-25T11:22:49.384Z,1004.04
2019-04-25T11:23:49.086Z,1004.04
2019-04-25T11:24:48.659Z,1004.01
2019-04-25T11:25:48.442Z,1003.97
2019-04-25T11:26:50.453Z,1003.91
2019-04-25T11:27:49.921Z,1003.96
2019-04-25T11:28:48.811Z,1003.96
2019-04-25T11:29:48.592Z,1003.95
2019-04-25T11:30:48.387Z,1003.92
2019-04-25T11:31:48.949Z,1003.94
2019-04-25T11:32:48.364Z,1003.99
2019-04-25T11:33:48.353Z,1003.93
2019-04-25T11:34:48.342Z,1003.92
2019-04-25T11:35:49.038Z,1003.87
2019-04-25T11:36:48.514Z,1003.95
2019-04-25T11:37:48.427Z,1003.87
2019-04-25T11:38:48.300Z,1003.88
2019-04-25T11:39:48.290Z,1003.83
2019-04-25T11:40:50.239Z,1003.78
2019-04-25T11:41:49.435Z,1003.84
2019-04-25T11:42:48.314Z,1003.90
2019-04-25T11:43:48.724Z,1003.88
2019-04-25T11:44:48.237Z,1003.85
2019-04-25T11:45:49.196Z,1003.81
2019-04-25T11:46:48.215Z,1003.80
2019-04-25T11:47:48.439Z,1003.72
2019-04-25T11:48:48.197Z,1003.73
2019-04-25T11:49:49.078Z,1003.77
2019-04-25T11:50:50.352Z,1003.73
2019-04-25T11:51:48.210Z,1003.75
2019-04-25T11:52:48.154Z,1003.78
2019-04-25T11:53:48.465Z,1003.63
2019-04-25T11:54:48.222Z,1003.66
2019-04-25T11:55:49.323Z,1003.61
2019-04-25T11:56:48.626Z,1003.65
2019-04-25T11:57:50.089Z,1003.65
2019-04-25T11:58:48.906Z,1003.70
2019-04-25T11:59:49.550Z,1003.65
2019-04-25T12:00:48.861Z,1003.62
2019-04-25T12:01:48.057Z,1003.58
2019-04-25T12:02:48.045Z,1003.63
2019-04-25T12:03:48.935Z,1003.67
2019-04-25T12:04:48.953Z,1003.80
2019-04-25T12:05:49.184Z,1003.71